createdAt,value
2019-02-12T00:00:00.248Z,93.8
2019-02-12T00:01:09.938Z,93.99
2019-02-12T00:02:19.887Z,94.27
2019-02-12T00:03:29.568Z,93.89
2019-02-12T00:04:39.253Z,94.46
2019-02-12T00:05:49.187Z,94.27
2019-02-12T00:06:59.135Z,94.08
2019-02-12T00:08:09.100Z,94.84
2019-02-12T00:09:19.073Z,94.37
2019-02-12T00:10:28.995Z,94.46
2019-02-12T00:11:38.915Z,93.8
2019-02-12T00:12:48.601Z,93.61
2019-02-12T00:13:58.526Z,94.27
2019-02-12T00:15:08.202Z,94.56
2019-02-12T00:16:17.885Z,93.89
2019-02-12T00:17:27.573Z,93.41
2019-02-12T00:18:36.749Z,93.7
2019-02-12T00:19:46.669Z,94.37
2019-02-12T00:20:56.593Z,93.51
2019-02-12T00:22:14.203Z,94.08
2019-02-12T00:23:23.903Z,93.8
2019-02-12T00:24:33.841Z,93.61
2019-02-12T00:25:43.269Z,94.18
2019-02-12T00:26:53.021Z,93.61
2019-02-12T00:28:02.969Z,92.28
2019-02-12T00:29:12.388Z,93.89
2019-02-12T00:30:21.821Z,94.84
2019-02-12T00:31:31.008Z,93.41
2019-02-12T00:32:40.968Z,94.08
2019-02-12T00:33:50.893Z,93.8
2019-02-12T00:35:00.578Z,93.23
2019-02-12T00:36:10.268Z,92.47
2019-02-12T00:37:20.203Z,94.08
2019-02-12T00:38:30.190Z,92.28
2019-02-12T00:39:39.859Z,93.99
2019-02-12T00:40:49.546Z,93.7
2019-02-12T00:41:59.479Z,94.65
2019-02-12T00:43:09.172Z,93.04
2019-02-12T00:44:19.105Z,94.08
2019-02-12T00:45:28.783Z,94.37
2019-02-12T00:46:38.447Z,93.32
2019-02-12T00:47:47.632Z,93.89
2019-02-12T00:48:57.570Z,93.04
2019-02-12T00:50:07.248Z,92.18
2019-02-12T00:51:20.415Z,94.18
2019-02-12T00:52:29.839Z,92.28
2019-02-12T00:53:39.262Z,93.7
2019-02-12T00:54:48.689Z,93.23
2019-02-12T00:55:58.152Z,93.7
2019-02-12T00:57:07.835Z,92.94
2019-02-12T00:58:17.262Z,93.13
2019-02-12T00:59:27.209Z,93.32
2019-02-12T01:00:36.951Z,92.09
2019-02-12T01:01:46.657Z,92.66
2019-02-12T01:02:56.092Z,92.57
2019-02-12T01:04:05.822Z,92.76
2019-02-12T01:05:15.517Z,92.38
2019-02-12T01:06:24.709Z,92.47
2019-02-12T01:07:34.386Z,92.85
2019-02-12T01:08:44.093Z,92.38
2019-02-12T01:09:53.796Z,92.09
2019-02-12T01:11:03.554Z,91.8
2019-02-12T01:12:13.554Z,92.38
2019-02-12T01:13:23.521Z,91.61
2019-02-12T01:14:33.200Z,91.8
2019-02-12T01:15:42.634Z,91.9
2019-02-12T01:16:51.812Z,91.24
2019-02-12T01:18:01.495Z,91.8
2019-02-12T01:19:10.919Z,92.18
2019-02-12T01:20:20.345Z,91.8
2019-02-12T01:21:30.034Z,91.71
2019-02-12T01:22:39.232Z,91.8
2019-02-12T01:23:48.905Z,91.14
2019-02-12T01:24:58.828Z,91.24
2019-02-12T01:26:08.259Z,91.05
2019-02-12T01:27:17.695Z,90.67
2019-02-12T01:28:27.379Z,90.81
2019-02-12T01:29:36.818Z,90.86
2019-02-12T01:30:46.008Z,90.48
2019-02-12T01:31:55.954Z,90.19
2019-02-12T01:33:05.895Z,90.38
2019-02-12T01:34:15.589Z,89.91
2019-02-12T01:35:25.278Z,88.58
2019-02-12T01:36:34.467Z,90.1
2019-02-12T01:37:44.146Z,89.72
2019-02-12T01:38:54.083Z,89.53
2019-02-12T01:40:03.779Z,90.1
2019-02-12T01:41:13.719Z,89.53
2019-02-12T01:42:23.182Z,89.34
2019-02-12T01:43:33.119Z,88.87
2019-02-12T01:44:42.549Z,88.39
2019-02-12T01:45:52.482Z,88.1
2019-02-12T01:47:02.428Z,86.78
2019-02-12T01:48:12.120Z,88.39
2019-02-12T01:49:21.824Z,87.54
2019-02-12T01:50:31.517Z,87.35
2019-02-12T01:51:41.218Z,87.16
2019-02-12T01:52:50.980Z,86.78
2019-02-12T01:54:00.405Z,86.68
2019-02-12T01:55:10.327Z,86.3
2019-02-12T01:56:19.770Z,87.63
2019-02-12T01:57:29.732Z,85.45
2019-02-12T01:58:39.680Z,86.3
2019-02-12T01:59:49.117Z,86.78
2019-02-12T02:00:58.808Z,86.68
2019-02-12T02:02:08.764Z,85.64
2019-02-12T02:03:18.203Z,86.11
2019-02-12T02:04:27.640Z,87.16
2019-02-12T02:05:37.083Z,86.21
2019-02-12T02:06:47.017Z,84.03
2019-02-12T02:07:56.709Z,85.07
2019-02-12T02:09:05.908Z,82.7
2019-02-12T02:10:15.605Z,79.19
2019-02-12T02:11:25.295Z,77.77
2019-02-12T02:12:34.744Z,76.34
2019-02-12T02:13:44.416Z,73.88
2019-02-12T02:14:53.847Z,73.08
2019-02-12T02:16:03.523Z,71.51
2019-02-12T02:17:13.452Z,70.81
2019-02-12T02:18:23.376Z,70.43
2019-02-12T02:19:33.059Z,70.72
2019-02-12T02:20:42.988Z,70.53
2019-02-12T02:21:52.686Z,70.15
2019-02-12T02:23:02.391Z,69.48
2019-02-12T02:24:12.064Z,68.15
2019-02-12T02:25:22.004Z,65.88
2019-02-12T02:26:31.679Z,65.97
2019-02-12T02:27:41.352Z,65.69
2019-02-12T02:28:51.041Z,65.22
2019-02-12T02:30:00.728Z,66.07
2019-02-12T02:31:10.768Z,66.54
2019-02-12T02:32:19.958Z,66.93
2019-02-12T02:33:29.963Z,65.97
2019-02-12T02:34:39.687Z,66.16
2019-02-12T02:35:49.135Z,66.26
2019-02-12T02:36:59.107Z,67.4
2019-02-12T02:38:08.798Z,66.45
2019-02-12T02:39:18.738Z,66.54
2019-02-12T02:40:28.430Z,67.21
2019-02-12T02:41:38.103Z,66.54
2019-02-12T02:42:47.815Z,65.88
2019-02-12T02:43:57.559Z,66.54
2019-02-12T02:45:07.506Z,66.54
2019-02-12T02:46:16.956Z,66.35
2019-02-12T02:47:26.922Z,67.77
2019-02-12T02:48:36.919Z,68.15
2019-02-12T02:49:46.848Z,67.96
2019-02-12T02:50:56.549Z,67.11
2019-02-12T02:52:06.489Z,66.74
2019-02-12T02:53:16.427Z,67.11
2019-02-12T02:54:26.372Z,67.02
2019-02-12T02:55:36.310Z,68.15
2019-02-12T02:56:46.038Z,67.77
2019-02-12T02:57:55.730Z,69.01
2019-02-12T02:59:05.661Z,69.57
2019-02-12T03:00:15.653Z,69.01
2019-02-12T03:01:25.617Z,68.91
2019-02-12T03:02:35.296Z,68.44
2019-02-12T03:03:45.241Z,68.25
2019-02-12T03:04:54.680Z,70.34
2019-02-12T03:06:04.403Z,70.53
2019-02-12T03:07:14.087Z,69.86
2019-02-12T03:08:23.774Z,70.43
2019-02-12T03:09:33.208Z,70.24
2019-02-12T03:10:42.904Z,69.67
2019-02-12T03:11:55.180Z,69.67
2019-02-12T03:13:05.119Z,70.62
2019-02-12T03:14:15.067Z,71
2019-02-12T03:15:24.744Z,70.9
2019-02-12T03:16:34.435Z,70.72
2019-02-12T03:17:44.121Z,70.81
2019-02-12T03:18:53.846Z,70.43
2019-02-12T03:20:03.275Z,71.38
2019-02-12T03:21:12.980Z,70.9
2019-02-12T03:22:22.927Z,70.72
2019-02-12T03:23:32.879Z,71.28
2019-02-12T03:24:42.562Z,70.9
2019-02-12T03:25:52.264Z,71
2019-02-12T03:27:02.186Z,70.72
2019-02-12T03:28:11.889Z,70.81
2019-02-12T03:29:21.859Z,70.43
2019-02-12T03:30:31.821Z,70.05
2019-02-12T03:31:41.870Z,70.15
2019-02-12T03:32:51.870Z,70.24
2019-02-12T03:34:01.588Z,70.43
2019-02-12T03:35:11.627Z,70.72
2019-02-12T03:36:21.342Z,70.43
2019-02-12T03:37:31.031Z,70.53
2019-02-12T03:38:40.466Z,70.9
2019-02-12T03:39:50.154Z,70.9
2019-02-12T03:40:59.592Z,70.9
2019-02-12T03:42:09.583Z,70.05
2019-02-12T03:43:19.027Z,70.81
2019-02-12T03:44:28.716Z,71.09
2019-02-12T03:45:38.654Z,70.53
2019-02-12T03:46:48.109Z,70.39
2019-02-12T03:47:58.032Z,70.15
2019-02-12T03:49:08.012Z,69.57
2019-02-12T03:50:17.990Z,70.43
2019-02-12T03:51:27.416Z,70.49
2019-02-12T03:52:37.410Z,70.34
2019-02-12T03:53:47.351Z,70.53
2019-02-12T03:54:57.031Z,69.86
2019-02-12T03:56:06.702Z,69.35
2019-02-12T03:57:16.626Z,68.88
2019-02-12T03:58:26.563Z,69.86
2019-02-12T03:59:36.487Z,69.17
2019-02-12T04:00:46.166Z,70.05
2019-02-12T04:01:56.108Z,69.29
2019-02-12T04:03:06.061Z,69.07
2019-02-12T04:04:15.488Z,68.69
2019-02-12T04:05:25.188Z,68.5
2019-02-12T04:06:34.915Z,68.79
2019-02-12T04:07:44.617Z,68.88
2019-02-12T04:08:54.310Z,68.12
2019-02-12T04:10:04.302Z,68.21
2019-02-12T04:11:14.241Z,68.21
2019-02-12T04:12:23.676Z,68.02
2019-02-12T04:13:33.604Z,69.29
2019-02-12T04:14:43.288Z,68.91
2019-02-12T04:15:53.225Z,69.17
2019-02-12T04:17:03.173Z,70.34
2019-02-12T04:18:12.105Z,70.05
2019-02-12T04:19:22.057Z,69.96
2019-02-12T04:20:31.751Z,69.54
2019-02-12T04:21:41.184Z,68.5
2019-02-12T04:22:51.127Z,70.72
2019-02-12T04:24:00.816Z,69.86
2019-02-12T04:25:10.798Z,69.67
2019-02-12T04:26:20.469Z,69.26
2019-02-12T04:27:30.194Z,69.64
2019-02-12T04:28:39.875Z,69.57
2019-02-12T04:29:49.319Z,67.96
2019-02-12T04:30:59.258Z,62.75
2019-02-12T04:32:09.211Z,60.86
2019-02-12T04:33:18.921Z,59.15
2019-02-12T04:34:28.615Z,58.58
2019-02-12T04:35:38.567Z,55.33
2019-02-12T04:36:47.758Z,54
2019-02-12T04:37:57.450Z,51.92
2019-02-12T04:39:07.396Z,50.31
2019-02-12T04:40:17.328Z,52.96
2019-02-12T04:41:27.021Z,51.64
2019-02-12T04:42:36.760Z,50.4
2019-02-12T04:43:46.694Z,52.04
2019-02-12T04:44:56.760Z,51.92
2019-02-12T04:46:06.458Z,53.18
2019-02-12T04:47:16.136Z,52.87
2019-02-12T04:48:25.811Z,52.98
2019-02-12T04:49:35.492Z,52.96
2019-02-12T04:50:45.452Z,51.73
2019-02-12T04:51:55.132Z,52.29
2019-02-12T04:53:04.832Z,51.64
2019-02-12T04:54:14.523Z,53.15
2019-02-12T04:55:23.967Z,52.58
2019-02-12T04:56:33.650Z,52.96
2019-02-12T04:57:43.607Z,52.29
2019-02-12T04:58:53.539Z,50.97
2019-02-12T05:00:03.237Z,50.59
2019-02-12T05:01:13.186Z,50.4
2019-02-12T05:02:23.126Z,51.16
2019-02-12T05:03:33.072Z,51.16
2019-02-12T05:04:42.764Z,50.59
2019-02-12T05:05:52.689Z,50.59
2019-02-12T05:07:02.637Z,49.27
2019-02-12T05:08:12.377Z,48.13
2019-02-12T05:09:22.318Z,48.79
2019-02-12T05:10:31.514Z,48.89
2019-02-12T05:11:41.448Z,48.89
2019-02-12T05:12:51.400Z,47.75
2019-02-12T05:14:01.323Z,47.66
2019-02-12T05:15:11.273Z,47.56
2019-02-12T05:16:20.715Z,46.33
2019-02-12T05:17:30.659Z,45.76
2019-02-12T05:18:40.365Z,46.33
2019-02-12T05:19:49.792Z,47.09
2019-02-12T05:20:59.721Z,48.22
2019-02-12T05:22:09.184Z,49.08
2019-02-12T05:23:18.619Z,49.95
2019-02-12T05:24:28.311Z,51.18
2019-02-12T05:25:37.986Z,51.07
2019-02-12T05:26:47.471Z,52.11
2019-02-12T05:27:57.457Z,51.76
2019-02-12T05:29:06.959Z,51.26
2019-02-12T05:30:16.395Z,51.82
2019-02-12T05:31:26.368Z,52.14
2019-02-12T05:32:36.313Z,51.82
2019-02-12T05:33:46.003Z,52.2
2019-02-12T05:34:55.937Z,52.98
2019-02-12T05:36:05.944Z,52.87
2019-02-12T05:37:15.631Z,52.68
2019-02-12T05:38:25.314Z,53.65
2019-02-12T05:39:34.545Z,52.89
2019-02-12T05:40:44.230Z,54.69
2019-02-12T05:41:53.686Z,54.41
2019-02-12T05:43:03.379Z,54.69
2019-02-12T05:44:13.319Z,55.71
2019-02-12T05:45:23.277Z,57.64
2019-02-12T05:46:32.961Z,58.01
2019-02-12T05:47:42.397Z,58.39
2019-02-12T05:48:52.112Z,57.82
2019-02-12T05:50:02.040Z,58.39
2019-02-12T05:51:11.750Z,59.05
2019-02-12T05:52:21.714Z,58.26
2019-02-12T05:53:31.660Z,58.55
2019-02-12T05:54:41.613Z,60.28
2019-02-12T05:55:51.318Z,60.28
2019-02-12T05:57:01.030Z,62.28
2019-02-12T05:58:10.765Z,61.3
2019-02-12T05:59:20.451Z,61.43
2019-02-12T06:00:29.901Z,61.02
2019-02-12T06:01:39.837Z,61.71
2019-02-12T06:02:49.782Z,60.64
2019-02-12T06:03:59.854Z,63.04
2019-02-12T06:05:09.793Z,63.32
2019-02-12T06:06:19.823Z,62.08
2019-02-12T06:07:29.254Z,62.85
2019-02-12T06:08:38.975Z,64.27
2019-02-12T06:09:48.939Z,63.7
2019-02-12T06:10:58.633Z,63.89
2019-02-12T06:12:08.307Z,63.32
2019-02-12T06:13:17.545Z,62.85
2019-02-12T06:14:27.243Z,64.08
2019-02-12T06:15:37.191Z,62.75
2019-02-12T06:16:47.130Z,64.55
2019-02-12T06:17:56.840Z,63.89
2019-02-12T06:19:06.021Z,63.48
2019-02-12T06:20:16.884Z,62.47
2019-02-12T06:21:26.826Z,63.04
2019-02-12T06:22:36.518Z,63.04
2019-02-12T06:23:46.479Z,62.82
2019-02-12T06:24:56.230Z,61.58
2019-02-12T06:26:06.170Z,61.96
2019-02-12T06:27:16.137Z,61.3
2019-02-12T06:28:25.588Z,60.35
2019-02-12T06:29:35.041Z,61.14
2019-02-12T06:30:46.490Z,60.73
2019-02-12T06:31:56.442Z,59.5
2019-02-12T06:33:10.206Z,58.26
2019-02-12T06:34:20.139Z,57.32
2019-02-12T06:35:29.582Z,57.42
2019-02-12T06:36:39.024Z,56.66
2019-02-12T06:37:48.983Z,57.51
2019-02-12T06:38:58.946Z,55.99
2019-02-12T06:40:08.900Z,55.99
2019-02-12T06:41:18.846Z,55.8
2019-02-12T06:42:28.814Z,55.9
2019-02-12T06:43:38.499Z,54.76
2019-02-12T06:44:48.427Z,54.47
2019-02-12T06:45:58.126Z,54.1
2019-02-12T06:47:07.835Z,53.63
2019-02-12T06:48:17.781Z,52.96
2019-02-12T06:49:27.466Z,54.1
2019-02-12T06:50:36.897Z,53.63
2019-02-12T06:51:46.835Z,53.15
2019-02-12T06:52:56.779Z,53.15
2019-02-12T06:54:15.068Z,52.96
2019-02-12T06:55:24.997Z,52.58
2019-02-12T06:56:34.930Z,52.01
2019-02-12T06:57:44.902Z,52.48
2019-02-12T06:58:54.584Z,53.06
2019-02-12T07:00:04.356Z,52.87
2019-02-12T07:01:14.079Z,52.68
2019-02-12T07:02:24.052Z,52.11
2019-02-12T07:03:34.109Z,52.96
2019-02-12T07:04:43.783Z,52.58
2019-02-12T07:05:53.224Z,52.58
2019-02-12T07:07:02.913Z,52.77
2019-02-12T07:08:12.597Z,52.68
2019-02-12T07:09:22.281Z,52.01
2019-02-12T07:10:31.972Z,52.2
2019-02-12T07:11:41.656Z,52.11
2019-02-12T07:12:51.601Z,52.11
2019-02-12T07:14:01.537Z,52.11
2019-02-12T07:15:11.487Z,52.2
2019-02-12T07:16:21.436Z,52.68
2019-02-12T07:17:31.171Z,52.11
2019-02-12T07:18:40.853Z,52.58
2019-02-12T07:19:50.526Z,52.96
2019-02-12T07:21:00.452Z,53.06
2019-02-12T07:22:10.137Z,52.87
2019-02-12T07:23:23.924Z,54.47
2019-02-12T07:24:33.620Z,54.76
2019-02-12T07:25:43.574Z,54.95
2019-02-12T07:26:53.536Z,54.86
2019-02-12T07:28:03.503Z,54.95
2019-02-12T07:29:13.200Z,55.26
2019-02-12T07:30:23.203Z,55.9
2019-02-12T07:31:34.615Z,56.09
2019-02-12T07:32:44.656Z,56.75
2019-02-12T07:33:54.340Z,56.27
2019-02-12T07:35:04.059Z,56.66
2019-02-12T07:36:13.768Z,56.56
2019-02-12T07:37:23.726Z,56.37
2019-02-12T07:38:33.657Z,56.27
2019-02-12T07:39:43.588Z,56.09
2019-02-12T07:40:53.284Z,56.85
2019-02-12T07:42:02.965Z,56.66
2019-02-12T07:43:12.663Z,56.75
2019-02-12T07:44:22.593Z,56.18
2019-02-12T07:45:32.288Z,57.32
2019-02-12T07:46:41.961Z,57.51
2019-02-12T07:47:51.895Z,58.36
2019-02-12T07:49:01.562Z,57.79
2019-02-12T07:50:11.300Z,57.79
2019-02-12T07:51:21.223Z,58.55
2019-02-12T07:52:30.938Z,58.07
2019-02-12T07:53:40.751Z,58.55
2019-02-12T07:54:50.444Z,57.7
2019-02-12T07:56:00.144Z,58.86
2019-02-12T07:57:10.090Z,58.55
2019-02-12T07:58:19.774Z,57.98
2019-02-12T07:59:28.959Z,58.58
2019-02-12T08:00:38.916Z,58.39
2019-02-12T08:01:48.599Z,58.58
2019-02-12T08:02:58.599Z,57.82
2019-02-12T08:04:08.309Z,58.58
2019-02-12T08:05:17.995Z,58.58
2019-02-12T08:06:27.955Z,58.58
2019-02-12T08:07:37.893Z,57.82
2019-02-12T08:08:47.816Z,58.11
2019-02-12T08:09:57.503Z,58.11
2019-02-12T08:11:07.473Z,58.58
2019-02-12T08:12:17.437Z,58.77
2019-02-12T08:13:27.129Z,57.73
2019-02-12T08:14:37.080Z,57.25
2019-02-12T08:15:46.777Z,57.06
2019-02-12T08:16:56.475Z,58.11
2019-02-12T08:18:06.480Z,57.54
2019-02-12T08:19:16.166Z,56.68
2019-02-12T08:20:25.863Z,58.01
2019-02-12T08:21:35.805Z,57.82
2019-02-12T08:22:45.734Z,57.44
2019-02-12T08:23:55.163Z,57.73
2019-02-12T08:25:05.128Z,57.44
2019-02-12T08:26:15.063Z,57.44
2019-02-12T08:27:26.347Z,57.73
2019-02-12T08:28:36.563Z,58.86
2019-02-12T08:29:46.249Z,59.05
2019-02-12T08:30:55.939Z,59.05
2019-02-12T08:32:05.925Z,57.82
2019-02-12T08:33:15.356Z,58.58
2019-02-12T08:34:24.786Z,57.54
2019-02-12T08:35:34.718Z,58.01
2019-02-12T08:36:44.004Z,58.67
2019-02-12T08:37:53.454Z,59.25
2019-02-12T08:39:03.417Z,59.91
2019-02-12T08:40:13.162Z,59.15
2019-02-12T08:41:23.099Z,58.48
2019-02-12T08:42:33.063Z,58.58
2019-02-12T08:43:45.121Z,57.54
2019-02-12T08:44:54.850Z,57.16
2019-02-12T08:46:04.867Z,57.25
2019-02-12T08:47:14.570Z,57.35
2019-02-12T08:48:24.281Z,57.16
2019-02-12T08:49:33.973Z,56.49
2019-02-12T08:50:43.156Z,56.02
2019-02-12T08:51:52.336Z,57.28
2019-02-12T08:53:01.765Z,56.99
2019-02-12T08:54:11.449Z,57.28
2019-02-12T08:55:20.682Z,56.12
2019-02-12T08:56:30.645Z,55.86
2019-02-12T08:57:40.596Z,56.02
2019-02-12T08:58:50.278Z,56.3
2019-02-12T09:00:00.466Z,56.52
2019-02-12T09:01:11.590Z,55.96
2019-02-12T09:02:21.050Z,56.78
2019-02-12T09:03:30.975Z,56.9
2019-02-12T09:04:40.737Z,56.99
2019-02-12T09:05:50.697Z,56.71
2019-02-12T09:07:00.138Z,55.96
2019-02-12T09:08:09.835Z,55.86
2019-02-12T09:09:19.802Z,57.19
2019-02-12T09:10:29.501Z,57.28
2019-02-12T09:11:39.437Z,56.43
2019-02-12T09:12:49.123Z,56.99
2019-02-12T09:13:58.586Z,57.85
2019-02-12T09:15:08.549Z,56.62
2019-02-12T09:16:18.483Z,56.15
2019-02-12T09:17:28.220Z,55.83
2019-02-12T09:18:37.913Z,56.15
2019-02-12T09:19:47.354Z,56.99
2019-02-12T09:20:57.307Z,57.28
2019-02-12T09:22:06.748Z,56.9
2019-02-12T09:23:16.681Z,56.81
2019-02-12T09:24:26.624Z,58.23
2019-02-12T09:25:36.349Z,58.8
2019-02-12T09:26:45.781Z,58.51
2019-02-12T09:27:55.750Z,57.76
2019-02-12T09:29:05.431Z,58.33
2019-02-12T09:30:15.392Z,59.18
2019-02-12T09:31:24.850Z,60.03
2019-02-12T09:32:34.533Z,60.13
2019-02-12T09:33:43.967Z,60.22
2019-02-12T09:34:53.414Z,59.94
2019-02-12T09:36:03.367Z,60.5
2019-02-12T09:37:13.102Z,60.31
2019-02-12T09:38:22.547Z,60.13
2019-02-12T09:39:31.981Z,60.13
2019-02-12T09:40:41.925Z,60.13
2019-02-12T09:41:51.615Z,60.13
2019-02-12T09:43:01.548Z,60.7
2019-02-12T09:44:11.241Z,62.31
2019-02-12T09:45:20.686Z,62.88
2019-02-12T09:46:30.662Z,63.54
2019-02-12T09:47:40.624Z,63.82
2019-02-12T09:48:50.576Z,63.17
2019-02-12T09:50:02.408Z,64.59
2019-02-12T09:51:12.370Z,64.05
2019-02-12T09:52:22.066Z,64.05
2019-02-12T09:53:31.752Z,65.19
2019-02-12T09:54:41.689Z,66.42
2019-02-12T09:55:51.422Z,67.46
2019-02-12T09:57:01.393Z,69.08
2019-02-12T09:58:11.367Z,67.46
2019-02-12T09:59:20.801Z,69.55
2019-02-12T10:00:30.764Z,69.27
2019-02-12T10:01:40.521Z,69.65
2019-02-12T10:02:50.482Z,70.03
2019-02-12T10:04:00.176Z,69.93
2019-02-12T10:05:10.125Z,69.55
2019-02-12T10:06:24.495Z,70.59
2019-02-12T10:07:34.551Z,70.69
2019-02-12T10:08:44.903Z,71.36
2019-02-12T10:09:54.576Z,71.64
2019-02-12T10:11:04.270Z,70.88
2019-02-12T10:12:14.235Z,70.98
2019-02-12T10:13:24.208Z,72.11
2019-02-12T10:14:33.894Z,71.73
2019-02-12T10:15:43.348Z,71.36
2019-02-12T10:16:53.294Z,71.45
2019-02-12T10:18:03.041Z,73.82
2019-02-12T10:19:12.978Z,75.05
2019-02-12T10:20:22.433Z,75.15
2019-02-12T10:21:31.862Z,74.9
2019-02-12T10:22:41.798Z,75.38
2019-02-12T10:23:51.729Z,75.38
2019-02-12T10:25:01.435Z,77.37
2019-02-12T10:26:10.624Z,75.28
2019-02-12T10:27:20.553Z,75.09
2019-02-12T10:28:30.496Z,76.9
2019-02-12T10:29:39.934Z,75.28
2019-02-12T10:30:49.623Z,78.23
2019-02-12T10:32:08.182Z,76.99
2019-02-12T10:33:18.481Z,77.47
2019-02-12T10:34:28.441Z,79.46
2019-02-12T10:35:38.147Z,78.42
2019-02-12T10:36:47.822Z,80.51
2019-02-12T10:37:57.508Z,83.16
2019-02-12T10:39:07.195Z,83.54
2019-02-12T10:40:16.883Z,83.73
2019-02-12T10:41:26.566Z,83.26
2019-02-12T10:42:36.079Z,84.21
2019-02-12T10:43:46.013Z,83.83
2019-02-12T10:44:55.714Z,83.83
2019-02-12T10:46:05.397Z,83.83
2019-02-12T10:47:15.108Z,84.44
2019-02-12T10:48:26.189Z,86.3
2019-02-12T10:49:35.874Z,86.01
2019-02-12T10:50:45.553Z,85.63
2019-02-12T10:51:55.253Z,88.86
2019-02-12T10:53:04.939Z,86.49
2019-02-12T10:54:16.360Z,88.48
2019-02-12T10:55:33.152Z,88.48
2019-02-12T10:56:43.127Z,87.53
2019-02-12T10:57:52.595Z,88.2
2019-02-12T10:59:02.281Z,86.96
2019-02-12T11:00:12.268Z,89.19
2019-02-12T11:01:21.954Z,87.34
2019-02-12T11:02:31.634Z,86.63
2019-02-12T11:03:41.081Z,88.9
2019-02-12T11:04:50.764Z,88.43
2019-02-12T11:06:00.701Z,87.19
2019-02-12T11:07:10.694Z,87.67
2019-02-12T11:08:20.623Z,88.43
2019-02-12T11:09:30.549Z,88.15
2019-02-12T11:10:40.476Z,89.38
2019-02-12T11:11:50.181Z,89.47
2019-02-12T11:13:00.127Z,87.48
2019-02-12T11:14:09.804Z,89.47
2019-02-12T11:15:19.477Z,89.19
2019-02-12T11:16:29.416Z,89.76
2019-02-12T11:17:39.108Z,88.53
2019-02-12T11:18:49.034Z,90.23
2019-02-12T11:19:58.719Z,90.42
2019-02-12T11:21:14.423Z,90.33
2019-02-12T11:22:24.369Z,90.71
2019-02-12T11:23:33.543Z,90.05
2019-02-12T11:24:42.983Z,90.42
2019-02-12T11:25:52.913Z,90.52
2019-02-12T11:27:02.340Z,90.52
2019-02-12T11:28:12.038Z,90.52
2019-02-12T11:29:21.729Z,90.9
2019-02-12T11:30:33.318Z,90.14
2019-02-12T11:31:43.010Z,89.95
2019-02-12T11:32:52.951Z,90.99
2019-02-12T11:34:02.649Z,90.52
2019-02-12T11:35:12.581Z,89.76
2019-02-12T11:36:22.273Z,90.05
2019-02-12T11:37:31.970Z,90.14
2019-02-12T11:38:41.652Z,90.33
2019-02-12T11:39:51.332Z,90
2019-02-12T11:41:01.022Z,88.95
2019-02-12T11:42:10.979Z,89.23
2019-02-12T11:43:20.668Z,88.95
2019-02-12T11:44:29.851Z,87.9
2019-02-12T11:45:39.026Z,88.76
2019-02-12T11:46:48.210Z,88.47
2019-02-12T11:47:57.893Z,88.95
2019-02-12T11:49:07.586Z,88.09
2019-02-12T11:50:16.759Z,88.38
2019-02-12T11:51:26.199Z,87.52
2019-02-12T11:52:35.874Z,87.34
2019-02-12T11:53:45.832Z,87.24
2019-02-12T11:54:55.512Z,87.81
2019-02-12T11:56:04.941Z,88.28
2019-02-12T11:57:15.799Z,88.47
2019-02-12T11:58:25.558Z,88.28
2019-02-12T11:59:35.007Z,87.24
2019-02-12T12:00:44.963Z,88.57
2019-02-12T12:01:54.641Z,88
2019-02-12T12:03:04.325Z,88.76
2019-02-12T12:04:14.011Z,87.14
2019-02-12T12:05:23.698Z,88.28
2019-02-12T12:06:33.415Z,89.23
2019-02-12T12:07:43.396Z,87.62
2019-02-12T12:08:53.075Z,87.05
2019-02-12T12:10:02.701Z,88.47
2019-02-12T12:11:12.403Z,88.47
2019-02-12T12:12:22.340Z,89.23
2019-02-12T12:13:31.774Z,88.47
2019-02-12T12:14:41.466Z,89.18
2019-02-12T12:15:51.207Z,89.09
2019-02-12T12:17:00.888Z,89.37
2019-02-12T12:18:10.568Z,88.09
2019-02-12T12:19:20.252Z,89.18
2019-02-12T12:20:30.201Z,88.52
2019-02-12T12:21:39.900Z,89.52
2019-02-12T12:22:50.781Z,89.42
2019-02-12T12:24:00.474Z,89.52
2019-02-12T12:25:10.404Z,89.61
2019-02-12T12:26:20.121Z,89.8
2019-02-12T12:27:30.109Z,89.61
2019-02-12T12:28:39.554Z,89.52
2019-02-12T12:29:50.739Z,89.61
2019-02-12T12:31:00.174Z,89.23
2019-02-12T12:32:09.857Z,89.56
2019-02-12T12:33:18.789Z,89
2019-02-12T12:34:28.483Z,89.56
2019-02-12T12:35:38.426Z,89.52
2019-02-12T12:36:48.357Z,89.8
2019-02-12T12:37:57.781Z,88.57
2019-02-12T12:39:07.472Z,89.94
2019-02-12T12:40:17.402Z,89.9
2019-02-12T12:41:26.849Z,89.33
2019-02-12T12:42:36.535Z,89.8
2019-02-12T12:43:46.224Z,89.33
2019-02-12T12:44:55.930Z,89.42
2019-02-12T12:46:05.365Z,89.61
2019-02-12T12:47:15.518Z,89.9
2019-02-12T12:48:24.978Z,90.19
2019-02-12T12:49:34.949Z,89.04
2019-02-12T12:50:44.400Z,90.19
2019-02-12T12:51:53.860Z,89.33
2019-02-12T12:53:03.305Z,89.71
2019-02-12T12:54:12.734Z,90
2019-02-12T12:55:22.691Z,89.8
2019-02-12T12:56:32.795Z,89.61
2019-02-12T12:57:44.677Z,88.95
2019-02-12T12:58:53.614Z,89.85
2019-02-12T13:00:03.300Z,88.76
2019-02-12T13:01:13.014Z,89.47
2019-02-12T13:02:22.695Z,90.14
2019-02-12T13:03:32.394Z,89.14
2019-02-12T13:04:42.074Z,90.52
2019-02-12T13:05:51.266Z,89.8
2019-02-12T13:07:00.450Z,90.52
2019-02-12T13:08:10.135Z,89.9
2019-02-12T13:09:19.564Z,91.13
2019-02-12T13:10:29.018Z,91.23
2019-02-12T13:11:38.203Z,91.23
2019-02-12T13:12:47.644Z,90.28
2019-02-12T13:13:57.335Z,90.47
2019-02-12T13:15:06.528Z,91.52
2019-02-12T13:16:16.459Z,91.61
2019-02-12T13:17:26.147Z,91.13
2019-02-12T13:18:36.130Z,91.42
2019-02-12T13:19:45.834Z,90.94
2019-02-12T13:20:56.872Z,91.61
2019-02-12T13:22:06.317Z,91.42
2019-02-12T13:23:15.505Z,92.08
2019-02-12T13:24:24.948Z,91.18
2019-02-12T13:25:34.385Z,91.28
2019-02-12T13:26:44.076Z,91.08
2019-02-12T13:27:53.769Z,92.32
2019-02-12T13:29:03.202Z,91.94
2019-02-12T13:30:12.883Z,91.85
2019-02-12T13:31:22.562Z,92.03
2019-02-12T13:32:31.999Z,91.66
2019-02-12T13:33:41.438Z,92.41
2019-02-12T13:34:51.131Z,91.94
2019-02-12T13:36:01.069Z,92.61
2019-02-12T13:37:10.756Z,91.94
2019-02-12T13:38:20.182Z,91.75
2019-02-12T13:39:30.122Z,92.32
2019-02-12T13:40:39.823Z,92.8
2019-02-12T13:41:49.532Z,91.85
2019-02-12T13:42:59.214Z,92.7
2019-02-12T13:44:08.645Z,92.8
2019-02-12T13:45:18.332Z,92.41
2019-02-12T13:46:28.272Z,91.94
2019-02-12T13:47:37.944Z,92.8
2019-02-12T13:48:47.135Z,92.61
2019-02-12T13:49:57.068Z,92.32
2019-02-12T13:51:06.929Z,91.94
2019-02-12T13:52:16.364Z,91.85
2019-02-12T13:53:26.038Z,91.94
2019-02-12T13:54:35.721Z,92.22
2019-02-12T13:55:45.415Z,91.94
2019-02-12T13:56:54.865Z,92.22
2019-02-12T13:58:04.797Z,92.03
2019-02-12T13:59:14.477Z,91.75
2019-02-12T14:00:24.175Z,91.56
2019-02-12T14:01:34.108Z,91.94
2019-02-12T14:02:44.073Z,91.85
2019-02-12T14:03:53.797Z,92.03
2019-02-12T14:05:03.573Z,92.03
2019-02-12T14:06:13.149Z,91.56
2019-02-12T14:07:22.964Z,91.56
2019-02-12T14:08:32.915Z,91.47
2019-02-12T14:09:42.119Z,90.89
2019-02-12T14:10:52.050Z,91.66
2019-02-12T14:12:01.752Z,90.99
2019-02-12T14:13:11.437Z,91.28
2019-02-12T14:14:21.958Z,91.22
2019-02-12T14:15:31.146Z,91.03
2019-02-12T14:16:40.843Z,91.13
2019-02-12T14:17:50.784Z,91.03
2019-02-12T14:19:01.166Z,91.22
2019-02-12T14:20:11.132Z,91.51
2019-02-12T14:21:20.824Z,90.84
2019-02-12T14:22:30.515Z,90.66
2019-02-12T14:23:40.204Z,91.51
2019-02-12T14:24:49.888Z,91.03
2019-02-12T14:25:59.825Z,90.66
2019-02-12T14:27:09.519Z,91.22
2019-02-12T14:28:18.955Z,90.56
2019-02-12T14:29:28.380Z,91.32
2019-02-12T14:30:38.078Z,91.32
2019-02-12T14:31:55.408Z,91.42
2019-02-12T14:33:05.377Z,91.13
2019-02-12T14:34:14.828Z,91.03
2019-02-12T14:35:24.282Z,91.22
2019-02-12T14:36:33.720Z,90.94
2019-02-12T14:37:43.422Z,90.66
2019-02-12T14:38:53.501Z,90.89
2019-02-12T14:40:03.516Z,90.8
2019-02-12T14:41:12.967Z,90.99
2019-02-12T14:42:22.915Z,90.23
2019-02-12T14:43:32.873Z,91.18
2019-02-12T14:44:42.568Z,90.42
2019-02-12T14:45:52.000Z,90.33
2019-02-12T14:47:01.992Z,90.23
2019-02-12T14:48:11.693Z,90.23
2019-02-12T14:49:21.132Z,90.23
2019-02-12T14:50:30.569Z,89.56
2019-02-12T14:51:40.515Z,90.23
2019-02-12T14:52:50.444Z,90.14
2019-02-12T14:53:59.875Z,90.23
2019-02-12T14:55:10.266Z,90.42
2019-02-12T14:56:19.952Z,90.14
2019-02-12T14:57:29.632Z,90.33
2019-02-12T14:58:39.308Z,90.52
2019-02-12T14:59:48.992Z,90.14
2019-02-12T15:00:58.935Z,90.52
2019-02-12T15:02:08.633Z,90.52